KARR/ARR METAR and TAF weather

Enter ICAO airport designator
Station Type Date Time Source
KARR METAR 2020/01/23 20:52 UTC NOAA

KARR 232052Z 14008KT 1 3/4SM -SN BR OVC006 01/M01 A3001 RMK AO2 SLP169 P0001 60001 T00061006 55007


Station Type Date Time Source
KARR Decoded METAR 2020/01/23 20:52 UTC NOAA

CHICAGO AURORA MUNICIPAL, IL, United States (KARR) 41-46N 088-28W 215M
Jan 23, 2020 - 03:52 PM EST / 2020.01.23 2052 UTC
Wind: from the SE (140 degrees) at 9 MPH (8 KT):0
Visibility: 1 3/4 mile(s):0
Sky conditions: overcast
Weather: light snow; mist
Precipitation last hour: 0.01 inches
Temperature: 33.1 F (0.6 C)
Windchill: 24 F (-4 C):1
Dew Point: 30.9 F (-0.6 C)
Relative Humidity: 91%
Pressure (altimeter): 30.01 in. Hg (1016 hPa)
Pressure tendency: 0.02 inches (0.7 hPa) lower than three hours ago
ob: KARR 232052Z 14008KT 1 3/4SM -SN BR OVC006 01/M01 A3001 RMK AO2 SLP169 P0001 60001 T00061006 55007
cycle: 21

Station Type Date Time Source
KARR TAF UTC NOAA

Error!

Example: see airport list